sensor_id;sensor_type;location;lat;lon;timestamp;temperature;humidity
9564;DHT22;4820;50.870;4.702;2024-03-08T00:00:46;6.20;99.90
9564;DHT22;4820;50.870;4.702;2024-03-08T00:03:12;6.10;99.90
9564;DHT22;4820;50.870;4.702;2024-03-08T00:05:38;6.10;99.90
9564;DHT22;4820;50.870;4.702;2024-03-08T00:08:05;6.10;99.90
9564;DHT22;4820;50.870;4.702;2024-03-08T00:10:34;6.00;99.90
9564;DHT22;4820;50.870;4.702;2024-03-08T00:13:00;6.00;99.90
9564;DHT22;4820;50.870;4.702;2024-03-08T00:15:26;6.00;99.90
9564;DHT22;4820;50.870;4.702;2024-03-08T00:17:51;6.00;99.90
9564;DHT22;4820;50.870;4.702;2024-03-08T00:20:17;6.00;99.90
9564;DHT22;4820;50.870;4.702;2024-03-08T00:22:49;6.00;99.90
9564;DHT22;4820;50.870;4.702;2024-03-08T00:25:14;6.00;99.90
9564;DHT22;4820;50.870;4.702;2024-03-08T00:27:40;5.90;99.90
9564;DHT22;4820;50.870;4.702;2024-03-08T00:30:07;5.90;99.90
9564;DHT22;4820;50.870;4.702;2024-03-08T00:32:33;5.90;99.90
9564;DHT22;4820;50.870;4.702;2024-03-08T00:34:59;5.90;99.90
9564;DHT22;4820;50.870;4.702;2024-03-08T00:37:25;5.90;99.90
9564;DHT22;4820;50.870;4.702;2024-03-08T00:39:51;5.90;99.90
9564;DHT22;4820;50.870;4.702;2024-03-08T00:42:20;5.80;99.90
9564;DHT22;4820;50.870;4.702;2024-03-08T00:44:46;5.80;99.90
9564;DHT22;4820;50.870;4.702;2024-03-08T00:47:15;5.80;99.90
9564;DHT22;4820;50.870;4.702;2024-03-08T00:49:41;5.80;99.90
9564;DHT22;4820;50.870;4.702;2024-03-08T00:52:07;5.80;99.90
9564;DHT22;4820;50.870;4.702;2024-03-08T00:54:34;5.80;99.90
9564;DHT22;4820;50.870;4.702;2024-03-08T00:56:59;5.80;99.90
9564;DHT22;4820;50.870;4.702;2024-03-08T00:59:28;5.70;99.90
9564;DHT22;4820;50.870;4.702;2024-03-08T01:01:55;5.70;99.90
9564;DHT22;4820;50.870;4.702;2024-03-08T01:04:22;5.70;99.90
9564;DHT22;4820;50.870;4.702;2024-03-08T01:06:48;5.70;99.90
9564;DHT22;4820;50.870;4.702;2024-03-08T01:09:15;5.70;99.90
9564;DHT22;4820;50.870;4.702;2024-03-08T01:11:43;5.70;99.90
9564;DHT22;4820;50.870;4.702;2024-03-08T01:14:09;5.70;99.90
9564;DHT22;4820;50.870;4.702;2024-03-08T01:16:34;5.70;99.90
9564;DHT22;4820;50.870;4.702;2024-03-08T01:19:00;5.60;99.90
9564;DHT22;4820;50.870;4.702;2024-03-08T01:21:26;5.60;99.90
9564;DHT22;4820;50.870;4.702;2024-03-08T01:23:51;5.60;99.90
9564;DHT22;4820;50.870;4.702;2024-03-08T01:26:17;5.60;99.90
9564;DHT22;4820;50.870;4.702;2024-03-08T01:28:42;5.60;99.90
9564;DHT22;4820;50.870;4.702;2024-03-08T01:31:09;5.60;99.90
9564;DHT22;4820;50.870;4.702;2024-03-08T01:33:35;5.50;99.90
9564;DHT22;4820;50.870;4.702;2024-03-08T01:36:02;5.50;99.90
9564;DHT22;4820;50.870;4.702;2024-03-08T01:38:28;5.50;99.90
9564;DHT22;4820;50.870;4.702;2024-03-08T01:40:54;5.50;99.90
9564;DHT22;4820;50.870;4.702;2024-03-08T01:43:20;5.40;99.90
9564;DHT22;4820;50.870;4.702;2024-03-08T01:45:47;5.40;99.90
9564;DHT22;4820;50.870;4.702;2024-03-08T01:48:16;5.40;99.90
9564;DHT22;4820;50.870;4.702;2024-03-08T01:50:43;5.40;99.90
9564;DHT22;4820;50.870;4.702;2024-03-08T01:53:09;5.40;99.90
9564;DHT22;4820;50.870;4.702;2024-03-08T01:55:38;5.30;99.90
9564;DHT22;4820;50.870;4.702;2024-03-08T01:58:05;5.30;99.90
9564;DHT22;4820;50.870;4.702;2024-03-08T02:00:32;5.30;99.90
9564;DHT22;4820;50.870;4.702;2024-03-08T02:02:59;5.30;99.90
9564;DHT22;4820;50.870;4.702;2024-03-08T02:05:25;5.20;99.90
9564;DHT22;4820;50.870;4.702;2024-03-08T02:07:52;5.20;99.90
9564;DHT22;4820;50.870;4.702;2024-03-08T02:10:18;5.20;99.90
9564;DHT22;4820;50.870;4.702;2024-03-08T02:12:44;5.20;99.90
9564;DHT22;4820;50.870;4.702;2024-03-08T02:15:11;5.20;99.90
9564;DHT22;4820;50.870;4.702;2024-03-08T02:17:37;5.20;99.90
9564;DHT22;4820;50.870;4.702;2024-03-08T02:20:03;5.20;99.90
9564;DHT22;4820;50.870;4.702;2024-03-08T02:22:30;5.10;99.90
9564;DHT22;4820;50.870;4.702;2024-03-08T02:24:59;5.10;99.90
9564;DHT22;4820;50.870;4.702;2024-03-08T02:27:29;5.10;99.90
9564;DHT22;4820;50.870;4.702;2024-03-08T02:29:58;5.10;99.90
9564;DHT22;4820;50.870;4.702;2024-03-08T02:32:26;5.00;99.90
9564;DHT22;4820;50.870;4.702;2024-03-08T02:34:56;5.00;99.90
9564;DHT22;4820;50.870;4.702;2024-03-08T02:37:22;5.00;99.90
9564;DHT22;4820;50.870;4.702;2024-03-08T02:39:47;5.00;99.90
9564;DHT22;4820;50.870;4.702;2024-03-08T02:42:13;5.00;99.90
9564;DHT22;4820;50.870;4.702;2024-03-08T02:44:42;5.00;99.90
9564;DHT22;4820;50.870;4.702;2024-03-08T02:47:09;5.00;99.90
9564;DHT22;4820;50.870;4.702;2024-03-08T02:49:36;5.00;99.90
9564;DHT22;4820;50.870;4.702;2024-03-08T02:52:04;4.90;99.90
9564;DHT22;4820;50.870;4.702;2024-03-08T02:54:30;4.90;99.90
9564;DHT22;4820;50.870;4.702;2024-03-08T02:56:56;4.90;99.90
9564;DHT22;4820;50.870;4.702;2024-03-08T02:59:22;4.80;99.90
9564;DHT22;4820;50.870;4.702;2024-03-08T03:01:49;4.80;99.90
9564;DHT22;4820;50.870;4.702;2024-03-08T03:04:14;4.80;99.90
9564;DHT22;4820;50.870;4.702;2024-03-08T03:06:40;4.80;99.90
9564;DHT22;4820;50.870;4.702;2024-03-08T03:09:06;4.70;99.90
9564;DHT22;4820;50.870;4.702;2024-03-08T03:11:33;4.80;99.90
9564;DHT22;4820;50.870;4.702;2024-03-08T03:14:00;4.80;99.90
9564;DHT22;4820;50.870;4.702;2024-03-08T03:16:25;4.80;99.90
9564;DHT22;4820;50.870;4.702;2024-03-08T03:18:51;4.70;99.90
9564;DHT22;4820;50.870;4.702;2024-03-08T03:21:17;4.70;99.90
9564;DHT22;4820;50.870;4.702;2024-03-08T03:23:42;4.70;99.90
9564;DHT22;4820;50.870;4.702;2024-03-08T03:26:11;4.70;99.90
9564;DHT22;4820;50.870;4.702;2024-03-08T03:28:37;4.70;99.90
9564;DHT22;4820;50.870;4.702;2024-03-08T03:31:06;4.70;99.90
9564;DHT22;4820;50.870;4.702;2024-03-08T03:33:32;4.60;99.90
9564;DHT22;4820;50.870;4.702;2024-03-08T03:36:00;4.60;99.90
9564;DHT22;4820;50.870;4.702;2024-03-08T03:38:27;4.60;99.90
9564;DHT22;4820;50.870;4.702;2024-03-08T03:40:53;4.60;99.90
9564;DHT22;4820;50.870;4.702;2024-03-08T03:43:23;4.60;99.90
9564;DHT22;4820;50.870;4.702;2024-03-08T03:45:49;4.60;99.90
9564;DHT22;4820;50.870;4.702;2024-03-08T03:48:14;4.60;99.90
9564;DHT22;4820;50.870;4.702;2024-03-08T03:50:40;4.50;99.90
9564;DHT22;4820;50.870;4.702;2024-03-08T03:53:06;4.50;99.90
9564;DHT22;4820;50.870;4.702;2024-03-08T03:55:35;4.50;99.90
9564;DHT22;4820;50.870;4.702;2024-03-08T03:58:02;4.50;99.90
9564;DHT22;4820;50.870;4.702;2024-03-08T04:00:28;4.50;99.90
9564;DHT22;4820;50.870;4.702;2024-03-08T04:02:54;4.50;99.90
9564;DHT22;4820;50.870;4.702;2024-03-08T04:05:20;4.40;99.90
9564;DHT22;4820;50.870;4.702;2024-03-08T04:07:46;4.50;99.90
9564;DHT22;4820;50.870;4.702;2024-03-08T04:10:12;4.40;99.90
9564;DHT22;4820;50.870;4.702;2024-03-08T04:12:38;4.40;99.90
9564;DHT22;4820;50.870;4.702;2024-03-08T04:15:04;4.40;99.90
9564;DHT22;4820;50.870;4.702;2024-03-08T04:17:39;4.40;99.90
9564;DHT22;4820;50.870;4.702;2024-03-08T04:20:05;4.40;99.90
9564;DHT22;4820;50.870;4.702;2024-03-08T04:22:38;4.30;99.90
9564;DHT22;4820;50.870;4.702;2024-03-08T04:25:05;4.30;99.90
9564;DHT22;4820;50.870;4.702;2024-03-08T04:27:32;4.30;99.90
9564;DHT22;4820;50.870;4.702;2024-03-08T04:29:58;4.30;99.90
9564;DHT22;4820;50.870;4.702;2024-03-08T04:32:25;4.30;99.90
9564;DHT22;4820;50.870;4.702;2024-03-08T04:34:50;4.30;99.90
9564;DHT22;4820;50.870;4.702;2024-03-08T04:37:16;4.30;99.90
9564;DHT22;4820;50.870;4.702;2024-03-08T04:39:47;4.30;99.90
9564;DHT22;4820;50.870;4.702;2024-03-08T04:42:13;4.30;99.90
9564;DHT22;4820;50.870;4.702;2024-03-08T04:44:40;4.20;99.90
9564;DHT22;4820;50.870;4.702;2024-03-08T04:47:06;4.20;99.90
9564;DHT22;4820;50.870;4.702;2024-03-08T04:49:35;4.20;99.90
9564;DHT22;4820;50.870;4.702;2024-03-08T04:52:04;4.20;99.90
9564;DHT22;4820;50.870;4.702;2024-03-08T04:54:30;4.20;99.90
9564;DHT22;4820;50.870;4.702;2024-03-08T04:56:57;4.20;99.90
9564;DHT22;4820;50.870;4.702;2024-03-08T04:59:24;4.20;99.90
9564;DHT22;4820;50.870;4.702;2024-03-08T05:01:51;4.20;99.90
9564;DHT22;4820;50.870;4.702;2024-03-08T05:04:16;4.20;99.90
9564;DHT22;4820;50.870;4.702;2024-03-08T05:06:43;4.20;99.90
9564;DHT22;4820;50.870;4.702;2024-03-08T05:09:10;4.20;99.90
9564;DHT22;4820;50.870;4.702;2024-03-08T05:11:43;4.20;99.90
9564;DHT22;4820;50.870;4.702;2024-03-08T05:14:10;4.20;99.90
9564;DHT22;4820;50.870;4.702;2024-03-08T05:16:35;4.10;99.90
9564;DHT22;4820;50.870;4.702;2024-03-08T05:19:02;4.20;99.90
9564;DHT22;4820;50.870;4.702;2024-03-08T05:21:28;4.20;99.90
9564;DHT22;4820;50.870;4.702;2024-03-08T05:23:54;4.10;99.90
9564;DHT22;4820;50.870;4.702;2024-03-08T05:26:20;4.10;99.90
9564;DHT22;4820;50.870;4.702;2024-03-08T05:28:48;4.10;99.90
9564;DHT22;4820;50.870;4.702;2024-03-08T05:31:23;4.10;99.90
9564;DHT22;4820;50.870;4.702;2024-03-08T05:33:49;4.00;99.90
9564;DHT22;4820;50.870;4.702;2024-03-08T05:36:15;4.10;99.90
9564;DHT22;4820;50.870;4.702;2024-03-08T05:38:45;4.10;99.90
9564;DHT22;4820;50.870;4.702;2024-03-08T05:41:11;4.00;99.90
9564;DHT22;4820;50.870;4.702;2024-03-08T05:43:40;4.00;99.90
9564;DHT22;4820;50.870;4.702;2024-03-08T05:46:08;4.00;99.90
9564;DHT22;4820;50.870;4.702;2024-03-08T05:48:33;4.00;99.90
9564;DHT22;4820;50.870;4.702;2024-03-08T05:51:02;4.00;99.90
9564;DHT22;4820;50.870;4.702;2024-03-08T05:53:28;4.00;99.90
9564;DHT22;4820;50.870;4.702;2024-03-08T05:55:57;4.00;99.90
9564;DHT22;4820;50.870;4.702;2024-03-08T05:58:24;4.00;99.90
9564;DHT22;4820;50.870;4.702;2024-03-08T06:00:50;4.00;99.90
9564;DHT22;4820;50.870;4.702;2024-03-08T06:03:15;4.10;99.90
9564;DHT22;4820;50.870;4.702;2024-03-08T06:05:41;4.10;99.90
9564;DHT22;4820;50.870;4.702;2024-03-08T06:08:08;4.20;99.90
9564;DHT22;4820;50.870;4.702;2024-03-08T06:10:34;4.20;99.90
9564;DHT22;4820;50.870;4.702;2024-03-08T06:12:59;4.20;99.90
9564;DHT22;4820;50.870;4.702;2024-03-08T06:15:27;4.10;99.90
9564;DHT22;4820;50.870;4.702;2024-03-08T06:17:52;4.10;99.90
9564;DHT22;4820;50.870;4.702;2024-03-08T06:20:18;4.10;99.90
9564;DHT22;4820;50.870;4.702;2024-03-08T06:22:44;4.10;99.90
9564;DHT22;4820;50.870;4.702;2024-03-08T06:25:13;4.10;99.90
9564;DHT22;4820;50.870;4.702;2024-03-08T06:27:42;4.10;99.90
9564;DHT22;4820;50.870;4.702;2024-03-08T06:30:12;4.10;99.90
9564;DHT22;4820;50.870;4.702;2024-03-08T06:32:38;4.00;99.90
9564;DHT22;4820;50.870;4.702;2024-03-08T06:35:05;4.00;99.90
9564;DHT22;4820;50.870;4.702;2024-03-08T06:37:34;4.00;99.90
9564;DHT22;4820;50.870;4.702;2024-03-08T06:40:01;4.00;99.90
9564;DHT22;4820;50.870;4.702;2024-03-08T06:42:28;4.10;99.90
9564;DHT22;4820;50.870;4.702;2024-03-08T06:44:53;4.10;99.90
9564;DHT22;4820;50.870;4.702;2024-03-08T06:47:22;4.10;99.90
9564;DHT22;4820;50.870;4.702;2024-03-08T06:49:51;4.10;99.90
9564;DHT22;4820;50.870;4.702;2024-03-08T06:52:17;4.10;99.90
9564;DHT22;4820;50.870;4.702;2024-03-08T06:54:43;4.10;99.90
9564;DHT22;4820;50.870;4.702;2024-03-08T06:57:09;4.10;99.90
9564;DHT22;4820;50.870;4.702;2024-03-08T06:59:36;4.10;99.90
9564;DHT22;4820;50.870;4.702;2024-03-08T07:02:05;4.10;99.90
9564;DHT22;4820;50.870;4.702;2024-03-08T07:04:30;4.20;99.90
9564;DHT22;4820;50.870;4.702;2024-03-08T07:06:57;4.20;99.90
9564;DHT22;4820;50.870;4.702;2024-03-08T07:09:23;4.20;99.90
9564;DHT22;4820;50.870;4.702;2024-03-08T07:11:50;4.20;99.90
9564;DHT22;4820;50.870;4.702;2024-03-08T07:14:22;4.30;99.90
9564;DHT22;4820;50.870;4.702;2024-03-08T07:16:49;4.30;99.90
9564;DHT22;4820;50.870;4.702;2024-03-08T07:19:14;4.30;99.90
9564;DHT22;4820;50.870;4.702;2024-03-08T07:21:41;4.40;99.90
9564;DHT22;4820;50.870;4.702;2024-03-08T07:24:07;4.40;99.90
9564;DHT22;4820;50.870;4.702;2024-03-08T07:26:43;4.40;99.90
9564;DHT22;4820;50.870;4.702;2024-03-08T07:29:09;4.40;99.90
9564;DHT22;4820;50.870;4.702;2024-03-08T07:31:34;4.50;99.90
9564;DHT22;4820;50.870;4.702;2024-03-08T07:34:12;4.50;99.90
9564;DHT22;4820;50.870;4.702;2024-03-08T07:36:38;4.50;99.90
9564;DHT22;4820;50.870;4.702;2024-03-08T07:39:03;4.60;99.90
9564;DHT22;4820;50.870;4.702;2024-03-08T07:41:37;4.60;99.90
9564;DHT22;4820;50.870;4.702;2024-03-08T07:44:03;4.70;99.90
9564;DHT22;4820;50.870;4.702;2024-03-08T07:46:30;4.80;99.90
9564;DHT22;4820;50.870;4.702;2024-03-08T07:48:55;4.90;99.90
9564;DHT22;4820;50.870;4.702;2024-03-08T07:51:21;4.90;99.90
9564;DHT22;4820;50.870;4.702;2024-03-08T07:53:47;4.90;99.90
9564;DHT22;4820;50.870;4.702;2024-03-08T07:56:12;5.00;99.90
9564;DHT22;4820;50.870;4.702;2024-03-08T07:58:40;5.00;99.90
9564;DHT22;4820;50.870;4.702;2024-03-08T08:01:15;5.10;99.90
9564;DHT22;4820;50.870;4.702;2024-03-08T08:03:41;5.20;99.90
9564;DHT22;4820;50.870;4.702;2024-03-08T08:06:07;5.20;99.90
9564;DHT22;4820;50.870;4.702;2024-03-08T08:08:33;5.30;99.90
9564;DHT22;4820;50.870;4.702;2024-03-08T08:10:59;5.30;99.90
9564;DHT22;4820;50.870;4.702;2024-03-08T08:13:24;5.40;99.90
9564;DHT22;4820;50.870;4.702;2024-03-08T08:15:50;5.40;99.90
9564;DHT22;4820;50.870;4.702;2024-03-08T08:18:16;5.40;99.90
9564;DHT22;4820;50.870;4.702;2024-03-08T08:20:42;5.40;99.90
9564;DHT22;4820;50.870;4.702;2024-03-08T08:23:08;5.50;99.90
9564;DHT22;4820;50.870;4.702;2024-03-08T08:25:36;5.60;99.90
9564;DHT22;4820;50.870;4.702;2024-03-08T08:28:03;5.70;99.90
9564;DHT22;4820;50.870;4.702;2024-03-08T08:30:29;5.70;99.90
9564;DHT22;4820;50.870;4.702;2024-03-08T08:32:55;5.80;99.90
9564;DHT22;4820;50.870;4.702;2024-03-08T08:35:23;5.80;99.90
9564;DHT22;4820;50.870;4.702;2024-03-08T08:37:49;5.90;99.90
9564;DHT22;4820;50.870;4.702;2024-03-08T08:40:15;5.90;99.90
9564;DHT22;4820;50.870;4.702;2024-03-08T08:42:43;6.00;99.90
9564;DHT22;4820;50.870;4.702;2024-03-08T08:45:09;6.10;99.90
9564;DHT22;4820;50.870;4.702;2024-03-08T08:47:38;6.20;99.90
9564;DHT22;4820;50.870;4.702;2024-03-08T08:50:04;6.20;99.90
9564;DHT22;4820;50.870;4.702;2024-03-08T08:52:31;6.20;99.90
9564;DHT22;4820;50.870;4.702;2024-03-08T08:54:57;6.30;99.90
9564;DHT22;4820;50.870;4.702;2024-03-08T08:57:24;6.30;99.90
9564;DHT22;4820;50.870;4.702;2024-03-08T08:59:50;6.30;99.90
9564;DHT22;4820;50.870;4.702;2024-03-08T09:02:15;6.40;99.90
9564;DHT22;4820;50.870;4.702;2024-03-08T09:04:42;6.50;99.90
9564;DHT22;4820;50.870;4.702;2024-03-08T09:07:11;6.50;99.90
9564;DHT22;4820;50.870;4.702;2024-03-08T09:09:39;6.50;99.90
9564;DHT22;4820;50.870;4.702;2024-03-08T09:12:05;6.60;99.90
9564;DHT22;4820;50.870;4.702;2024-03-08T09:14:30;6.70;99.90
9564;DHT22;4820;50.870;4.702;2024-03-08T09:16:56;6.70;99.90
9564;DHT22;4820;50.870;4.702;2024-03-08T09:19:22;6.80;99.90
9564;DHT22;4820;50.870;4.702;2024-03-08T09:21:51;6.90;99.90
9564;DHT22;4820;50.870;4.702;2024-03-08T09:24:17;6.90;99.90
9564;DHT22;4820;50.870;4.702;2024-03-08T09:26:43;7.00;99.90
9564;DHT22;4820;50.870;4.702;2024-03-08T09:29:08;7.00;99.90
9564;DHT22;4820;50.870;4.702;2024-03-08T09:31:36;7.10;99.90
9564;DHT22;4820;50.870;4.702;2024-03-08T09:34:03;7.20;99.90
9564;DHT22;4820;50.870;4.702;2024-03-08T09:36:29;7.20;99.90
9564;DHT22;4820;50.870;4.702;2024-03-08T09:38:55;7.30;99.90
9564;DHT22;4820;50.870;4.702;2024-03-08T09:41:21;7.30;99.90
9564;DHT22;4820;50.870;4.702;2024-03-08T09:43:47;7.40;99.90
9564;DHT22;4820;50.870;4.702;2024-03-08T09:46:15;7.40;99.90
9564;DHT22;4820;50.870;4.702;2024-03-08T09:48:41;7.50;99.90
9564;DHT22;4820;50.870;4.702;2024-03-08T09:51:07;7.50;99.90
9564;DHT22;4820;50.870;4.702;2024-03-08T09:53:33;7.50;99.90
9564;DHT22;4820;50.870;4.702;2024-03-08T09:55:59;7.60;99.90
9564;DHT22;4820;50.870;4.702;2024-03-08T09:58:25;7.70;99.90
9564;DHT22;4820;50.870;4.702;2024-03-08T10:00:51;7.70;99.90
9564;DHT22;4820;50.870;4.702;2024-03-08T10:03:17;7.80;99.90
9564;DHT22;4820;50.870;4.702;2024-03-08T10:05:44;8.00;99.90
9564;DHT22;4820;50.870;4.702;2024-03-08T10:08:11;8.00;99.90
9564;DHT22;4820;50.870;4.702;2024-03-08T10:10:37;8.00;99.90
9564;DHT22;4820;50.870;4.702;2024-03-08T10:13:06;8.10;99.90
9564;DHT22;4820;50.870;4.702;2024-03-08T10:15:32;8.20;99.90
9564;DHT22;4820;50.870;4.702;2024-03-08T10:18:00;8.20;99.90
9564;DHT22;4820;50.870;4.702;2024-03-08T10:20:32;8.20;99.90
9564;DHT22;4820;50.870;4.702;2024-03-08T10:23:04;8.30;99.90
9564;DHT22;4820;50.870;4.702;2024-03-08T10:25:31;8.40;99.90
9564;DHT22;4820;50.870;4.702;2024-03-08T10:27:58;8.50;99.90
9564;DHT22;4820;50.870;4.702;2024-03-08T10:30:24;8.50;99.90
9564;DHT22;4820;50.870;4.702;2024-03-08T10:32:50;8.60;99.90
9564;DHT22;4820;50.870;4.702;2024-03-08T10:35:17;8.70;99.90
9564;DHT22;4820;50.870;4.702;2024-03-08T10:40:19;8.80;99.90
9564;DHT22;4820;50.870;4.702;2024-03-08T10:42:56;8.90;99.90
9564;DHT22;4820;50.870;4.702;2024-03-08T10:45:35;8.90;99.90
9564;DHT22;4820;50.870;4.702;2024-03-08T10:48:16;8.90;99.90
9564;DHT22;4820;50.870;4.702;2024-03-08T10:50:46;9.00;99.90
9564;DHT22;4820;50.870;4.702;2024-03-08T10:53:14;9.10;99.90
9564;DHT22;4820;50.870;4.702;2024-03-08T10:55:41;9.10;99.90
9564;DHT22;4820;50.870;4.702;2024-03-08T10:58:08;9.20;99.90
9564;DHT22;4820;50.870;4.702;2024-03-08T11:00:35;9.20;99.90
9564;DHT22;4820;50.870;4.702;2024-03-08T11:03:01;9.20;99.90
9564;DHT22;4820;50.870;4.702;2024-03-08T11:05:37;9.20;99.90
9564;DHT22;4820;50.870;4.702;2024-03-08T11:08:26;9.30;99.90
9564;DHT22;4820;50.870;4.702;2024-03-08T11:10:57;9.30;99.90
9564;DHT22;4820;50.870;4.702;2024-03-08T11:13:40;9.40;99.90
9564;DHT22;4820;50.870;4.702;2024-03-08T11:21:36;9.70;99.90
9564;DHT22;4820;50.870;4.702;2024-03-08T11:24:13;9.80;99.90
9564;DHT22;4820;50.870;4.702;2024-03-08T11:26:40;9.90;99.90
9564;DHT22;4820;50.870;4.702;2024-03-08T11:32:11;10.00;99.90
9564;DHT22;4820;50.870;4.702;2024-03-08T11:34:42;10.20;99.90
9564;DHT22;4820;50.870;4.702;2024-03-08T11:37:12;10.20;99.90
9564;DHT22;4820;50.870;4.702;2024-03-08T11:39:52;10.30;99.90
9564;DHT22;4820;50.870;4.702;2024-03-08T11:42:19;10.30;99.90
9564;DHT22;4820;50.870;4.702;2024-03-08T11:44:48;10.30;99.90
9564;DHT22;4820;50.870;4.702;2024-03-08T11:47:15;10.30;99.90
9564;DHT22;4820;50.870;4.702;2024-03-08T11:49:41;10.30;99.90
9564;DHT22;4820;50.870;4.702;2024-03-08T11:52:14;10.40;99.90
9564;DHT22;4820;50.870;4.702;2024-03-08T11:54:40;10.40;99.90
9564;DHT22;4820;50.870;4.702;2024-03-08T11:57:06;10.40;99.90
9564;DHT22;4820;50.870;4.702;2024-03-08T11:59:32;10.50;99.90
9564;DHT22;4820;50.870;4.702;2024-03-08T12:02:02;10.50;99.90
9564;DHT22;4820;50.870;4.702;2024-03-08T12:04:29;10.60;99.90
9564;DHT22;4820;50.870;4.702;2024-03-08T12:06:54;10.70;99.90
9564;DHT22;4820;50.870;4.702;2024-03-08T12:09:20;10.70;99.90
9564;DHT22;4820;50.870;4.702;2024-03-08T12:11:50;10.80;99.90
9564;DHT22;4820;50.870;4.702;2024-03-08T12:14:17;11.00;99.90
9564;DHT22;4820;50.870;4.702;2024-03-08T12:16:43;11.00;99.90
9564;DHT22;4820;50.870;4.702;2024-03-08T12:19:10;11.00;99.90
9564;DHT22;4820;50.870;4.702;2024-03-08T12:21:36;11.00;99.90
9564;DHT22;4820;50.870;4.702;2024-03-08T12:24:06;11.00;99.90
9564;DHT22;4820;50.870;4.702;2024-03-08T12:26:37;11.00;99.90
9564;DHT22;4820;50.870;4.702;2024-03-08T12:31:50;11.10;99.90
9564;DHT22;4820;50.870;4.702;2024-03-08T12:34:16;11.20;99.90
9564;DHT22;4820;50.870;4.702;2024-03-08T12:36:46;11.20;99.90
9564;DHT22;4820;50.870;4.702;2024-03-08T12:39:16;11.40;99.90
9564;DHT22;4820;50.870;4.702;2024-03-08T12:41:43;11.40;99.90
9564;DHT22;4820;50.870;4.702;2024-03-08T12:44:09;11.50;99.90
9564;DHT22;4820;50.870;4.702;2024-03-08T12:46:38;11.60;99.90
9564;DHT22;4820;50.870;4.702;2024-03-08T12:49:09;11.50;99.90
9564;DHT22;4820;50.870;4.702;2024-03-08T12:51:36;11.50;99.90
9564;DHT22;4820;50.870;4.702;2024-03-08T12:54:02;11.60;99.90
9564;DHT22;4820;50.870;4.702;2024-03-08T12:56:30;11.60;99.90
9564;DHT22;4820;50.870;4.702;2024-03-08T12:58:56;11.70;99.90
9564;DHT22;4820;50.870;4.702;2024-03-08T13:01:22;11.80;99.90
9564;DHT22;4820;50.870;4.702;2024-03-08T13:03:48;11.80;99.90
9564;DHT22;4820;50.870;4.702;2024-03-08T13:06:15;12.00;99.90
9564;DHT22;4820;50.870;4.702;2024-03-08T13:08:41;12.00;99.90
9564;DHT22;4820;50.870;4.702;2024-03-08T13:11:11;12.10;99.90
9564;DHT22;4820;50.870;4.702;2024-03-08T13:13:37;12.10;99.90
9564;DHT22;4820;50.870;4.702;2024-03-08T13:16:06;12.10;99.90
9564;DHT22;4820;50.870;4.702;2024-03-08T13:18:34;12.00;99.90
9564;DHT22;4820;50.870;4.702;2024-03-08T13:21:00;12.10;99.90
9564;DHT22;4820;50.870;4.702;2024-03-08T13:23:32;12.10;99.90
9564;DHT22;4820;50.870;4.702;2024-03-08T13:25:59;12.10;99.90
9564;DHT22;4820;50.870;4.702;2024-03-08T13:28:25;12.10;99.90
9564;DHT22;4820;50.870;4.702;2024-03-08T13:30:55;12.10;99.90
9564;DHT22;4820;50.870;4.702;2024-03-08T13:33:23;12.20;99.90
9564;DHT22;4820;50.870;4.702;2024-03-08T13:35:50;12.30;99.90
9564;DHT22;4820;50.870;4.702;2024-03-08T13:38:17;12.40;99.90
9564;DHT22;4820;50.870;4.702;2024-03-08T13:40:46;12.60;99.90
9564;DHT22;4820;50.870;4.702;2024-03-08T13:43:12;12.60;99.90
9564;DHT22;4820;50.870;4.702;2024-03-08T13:45:38;12.60;99.90
9564;DHT22;4820;50.870;4.702;2024-03-08T13:48:04;12.70;99.90
9564;DHT22;4820;50.870;4.702;2024-03-08T13:50:30;12.80;99.90
9564;DHT22;4820;50.870;4.702;2024-03-08T13:52:57;12.80;99.90
9564;DHT22;4820;50.870;4.702;2024-03-08T13:55:24;12.80;99.90
9564;DHT22;4820;50.870;4.702;2024-03-08T13:57:53;12.80;99.90
9564;DHT22;4820;50.870;4.702;2024-03-08T14:00:18;12.80;99.90
9564;DHT22;4820;50.870;4.702;2024-03-08T14:02:48;12.80;99.90
9564;DHT22;4820;50.870;4.702;2024-03-08T14:05:14;12.80;99.90
9564;DHT22;4820;50.870;4.702;2024-03-08T14:07:41;12.90;99.90
9564;DHT22;4820;50.870;4.702;2024-03-08T14:10:08;12.90;99.90
9564;DHT22;4820;50.870;4.702;2024-03-08T14:12:36;12.80;99.90
9564;DHT22;4820;50.870;4.702;2024-03-08T14:15:04;12.90;99.90
9564;DHT22;4820;50.870;4.702;2024-03-08T14:17:32;12.80;99.90
9564;DHT22;4820;50.870;4.702;2024-03-08T14:19:57;12.80;99.90
9564;DHT22;4820;50.870;4.702;2024-03-08T14:22:24;12.80;99.90
9564;DHT22;4820;50.870;4.702;2024-03-08T14:24:50;12.90;99.90
9564;DHT22;4820;50.870;4.702;2024-03-08T14:27:17;12.80;99.90
9564;DHT22;4820;50.870;4.702;2024-03-08T14:29:44;12.80;99.90
9564;DHT22;4820;50.870;4.702;2024-03-08T14:32:10;12.90;99.90
9564;DHT22;4820;50.870;4.702;2024-03-08T14:34:38;12.80;99.90
9564;DHT22;4820;50.870;4.702;2024-03-08T14:37:04;12.80;99.90
9564;DHT22;4820;50.870;4.702;2024-03-08T14:39:33;12.80;99.90
9564;DHT22;4820;50.870;4.702;2024-03-08T14:42:00;12.90;99.90
9564;DHT22;4820;50.870;4.702;2024-03-08T14:44:27;12.90;99.90
9564;DHT22;4820;50.870;4.702;2024-03-08T14:46:58;12.90;99.90
9564;DHT22;4820;50.870;4.702;2024-03-08T14:49:24;12.90;99.90
9564;DHT22;4820;50.870;4.702;2024-03-08T14:51:55;12.80;99.90
9564;DHT22;4820;50.870;4.702;2024-03-08T14:54:21;12.70;99.90
9564;DHT22;4820;50.870;4.702;2024-03-08T14:56:49;12.70;99.90
9564;DHT22;4820;50.870;4.702;2024-03-08T14:59:17;12.70;99.90
9564;DHT22;4820;50.870;4.702;2024-03-08T15:01:45;12.70;99.90
9564;DHT22;4820;50.870;4.702;2024-03-08T15:04:11;12.60;99.90
9564;DHT22;4820;50.870;4.702;2024-03-08T15:06:41;12.60;99.90
9564;DHT22;4820;50.870;4.702;2024-03-08T15:09:08;12.60;99.90
9564;DHT22;4820;50.870;4.702;2024-03-08T15:11:40;12.60;99.90
9564;DHT22;4820;50.870;4.702;2024-03-08T15:14:09;12.50;99.90
9564;DHT22;4820;50.870;4.702;2024-03-08T15:16:37;12.50;99.90
9564;DHT22;4820;50.870;4.702;2024-03-08T15:19:05;12.50;99.90
9564;DHT22;4820;50.870;4.702;2024-03-08T15:21:31;12.50;99.90
9564;DHT22;4820;50.870;4.702;2024-03-08T15:23:57;12.40;99.90
9564;DHT22;4820;50.870;4.702;2024-03-08T15:26:23;12.40;99.90
9564;DHT22;4820;50.870;4.702;2024-03-08T15:28:53;12.40;99.90
9564;DHT22;4820;50.870;4.702;2024-03-08T15:31:19;12.40;99.90
9564;DHT22;4820;50.870;4.702;2024-03-08T15:33:48;12.30;99.90
9564;DHT22;4820;50.870;4.702;2024-03-08T15:36:17;12.30;99.90
9564;DHT22;4820;50.870;4.702;2024-03-08T15:38:46;12.30;99.90
9564;DHT22;4820;50.870;4.702;2024-03-08T15:41:13;12.30;99.90
9564;DHT22;4820;50.870;4.702;2024-03-08T15:43:40;12.40;99.90
9564;DHT22;4820;50.870;4.702;2024-03-08T15:46:07;12.40;99.90
9564;DHT22;4820;50.870;4.702;2024-03-08T15:48:33;12.40;99.90
9564;DHT22;4820;50.870;4.702;2024-03-08T15:51:01;12.30;99.90
9564;DHT22;4820;50.870;4.702;2024-03-08T15:53:36;12.30;99.90
9564;DHT22;4820;50.870;4.702;2024-03-08T15:56:03;12.30;99.90
9564;DHT22;4820;50.870;4.702;2024-03-08T15:58:31;12.30;99.90
9564;DHT22;4820;50.870;4.702;2024-03-08T16:00:57;12.30;99.90
9564;DHT22;4820;50.870;4.702;2024-03-08T16:03:25;12.20;99.90
9564;DHT22;4820;50.870;4.702;2024-03-08T16:05:55;12.20;99.90
9564;DHT22;4820;50.870;4.702;2024-03-08T16:08:20;12.20;99.90
9564;DHT22;4820;50.870;4.702;2024-03-08T16:10:48;12.20;99.90
9564;DHT22;4820;50.870;4.702;2024-03-08T16:13:27;12.10;99.90
9564;DHT22;4820;50.870;4.702;2024-03-08T16:15:56;12.00;99.90
9564;DHT22;4820;50.870;4.702;2024-03-08T16:18:23;12.00;99.90
9564;DHT22;4820;50.870;4.702;2024-03-08T16:20:54;12.00;99.90
9564;DHT22;4820;50.870;4.702;2024-03-08T16:23:21;12.00;99.90
9564;DHT22;4820;50.870;4.702;2024-03-08T16:25:47;11.90;99.90